sensor_id;sensor_type;location;lat;lon;timestamp;temperature;humidity
64924;HTU21D;51436;44.692;39.214;2022-12-10T00:01:12;7.75;77.92
64924;HTU21D;51436;44.692;39.214;2022-12-10T00:03:39;7.72;78.15
64924;HTU21D;51436;44.692;39.214;2022-12-10T00:06:10;7.68;78.30
64924;HTU21D;51436;44.692;39.214;2022-12-10T00:08:36;7.67;78.40
64924;HTU21D;51436;44.692;39.214;2022-12-10T00:11:08;7.67;78.36
64924;HTU21D;51436;44.692;39.214;2022-12-10T00:13:36;7.68;78.42
64924;HTU21D;51436;44.692;39.214;2022-12-10T00:16:05;7.69;78.21
64924;HTU21D;51436;44.692;39.214;2022-12-10T00:18:32;7.65;78.33
64924;HTU21D;51436;44.692;39.214;2022-12-10T00:21:05;7.62;78.26
64924;HTU21D;51436;44.692;39.214;2022-12-10T00:23:33;7.61;78.28
64924;HTU21D;51436;44.692;39.214;2022-12-10T00:26:09;7.59;78.05
64924;HTU21D;51436;44.692;39.214;2022-12-10T00:28:37;7.58;78.24
64924;HTU21D;51436;44.692;39.214;2022-12-10T00:31:15;7.44;78.11
64924;HTU21D;51436;44.692;39.214;2022-12-10T00:33:43;7.31;78.66
64924;HTU21D;51436;44.692;39.214;2022-12-10T00:36:19;7.29;78.70
64924;HTU21D;51436;44.692;39.214;2022-12-10T00:38:46;7.32;78.66
64924;HTU21D;51436;44.692;39.214;2022-12-10T00:41:13;7.35;78.53
64924;HTU21D;51436;44.692;39.214;2022-12-10T00:43:40;7.38;78.53
64924;HTU21D;51436;44.692;39.214;2022-12-10T00:46:07;7.37;78.47
64924;HTU21D;51436;44.692;39.214;2022-12-10T00:48:34;7.37;78.53
64924;HTU21D;51436;44.692;39.214;2022-12-10T00:51:02;7.35;78.45
64924;HTU21D;51436;44.692;39.214;2022-12-10T00:53:30;7.35;78.39
64924;HTU21D;51436;44.692;39.214;2022-12-10T00:55:57;7.32;78.42
64924;HTU21D;51436;44.692;39.214;2022-12-10T00:58:28;7.29;78.46
64924;HTU21D;51436;44.692;39.214;2022-12-10T01:01:05;7.29;78.57
64924;HTU21D;51436;44.692;39.214;2022-12-10T01:03:32;7.30;78.53
64924;HTU21D;51436;44.692;39.214;2022-12-10T01:06:08;7.32;78.20
64924;HTU21D;51436;44.692;39.214;2022-12-10T01:08:35;7.33;78.26
64924;HTU21D;51436;44.692;39.214;2022-12-10T01:11:03;7.32;78.23
64924;HTU21D;51436;44.692;39.214;2022-12-10T01:13:29;7.34;78.31
64924;HTU21D;51436;44.692;39.214;2022-12-10T01:15:56;7.37;78.36
64924;HTU21D;51436;44.692;39.214;2022-12-10T01:18:24;7.40;78.38
64924;HTU21D;51436;44.692;39.214;2022-12-10T01:20:50;7.43;78.18
64924;HTU21D;51436;44.692;39.214;2022-12-10T01:23:16;7.45;78.13
64924;HTU21D;51436;44.692;39.214;2022-12-10T01:25:42;7.45;78.07
64924;HTU21D;51436;44.692;39.214;2022-12-10T01:28:09;7.43;78.03
64924;HTU21D;51436;44.692;39.214;2022-12-10T01:30:35;7.41;78.11
64924;HTU21D;51436;44.692;39.214;2022-12-10T01:33:01;7.41;78.17
64924;HTU21D;51436;44.692;39.214;2022-12-10T01:35:28;7.44;78.16
64924;HTU21D;51436;44.692;39.214;2022-12-10T01:37:54;7.47;78.14
64924;HTU21D;51436;44.692;39.214;2022-12-10T01:40:20;7.46;78.18
64924;HTU21D;51436;44.692;39.214;2022-12-10T01:42:46;7.49;78.07
64924;HTU21D;51436;44.692;39.214;2022-12-10T01:45:14;7.47;78.15
64924;HTU21D;51436;44.692;39.214;2022-12-10T01:47:40;7.49;78.10
64924;HTU21D;51436;44.692;39.214;2022-12-10T01:50:07;7.49;78.01
64924;HTU21D;51436;44.692;39.214;2022-12-10T01:52:37;7.52;78.01
64924;HTU21D;51436;44.692;39.214;2022-12-10T01:55:37;7.49;77.92
64924;HTU21D;51436;44.692;39.214;2022-12-10T01:57:55;7.52;78.01
64924;HTU21D;51436;44.692;39.214;2022-12-10T02:00:21;7.53;78.00
64924;HTU21D;51436;44.692;39.214;2022-12-10T02:03:04;7.53;77.78
64924;HTU21D;51436;44.692;39.214;2022-12-10T02:10:50;7.46;77.82
64924;HTU21D;51436;44.692;39.214;2022-12-10T02:13:42;7.46;77.87
64924;HTU21D;51436;44.692;39.214;2022-12-10T02:16:15;7.47;78.02
64924;HTU21D;51436;44.692;39.214;2022-12-10T02:21:49;7.48;78.11
64924;HTU21D;51436;44.692;39.214;2022-12-10T02:24:22;7.49;78.03
64924;HTU21D;51436;44.692;39.214;2022-12-10T02:27:27;7.52;77.76
64924;HTU21D;51436;44.692;39.214;2022-12-10T02:30:00;7.55;77.93
64924;HTU21D;51436;44.692;39.214;2022-12-10T02:32:38;7.55;77.83
64924;HTU21D;51436;44.692;39.214;2022-12-10T02:35:25;7.57;77.90
64924;HTU21D;51436;44.692;39.214;2022-12-10T02:38:19;7.59;77.89
64924;HTU21D;51436;44.692;39.214;2022-12-10T02:40:47;7.58;77.83
64924;HTU21D;51436;44.692;39.214;2022-12-10T02:43:15;7.56;78.01
64924;HTU21D;51436;44.692;39.214;2022-12-10T02:45:44;7.58;78.03
64924;HTU21D;51436;44.692;39.214;2022-12-10T02:48:13;7.57;78.06
64924;HTU21D;51436;44.692;39.214;2022-12-10T02:50:42;7.57;78.16
64924;HTU21D;51436;44.692;39.214;2022-12-10T02:53:16;7.58;77.93
64924;HTU21D;51436;44.692;39.214;2022-12-10T03:12:46;7.55;78.05
64924;HTU21D;51436;44.692;39.214;2022-12-10T03:15:14;7.58;78.17
64924;HTU21D;51436;44.692;39.214;2022-12-10T03:17:43;7.59;78.13
64924;HTU21D;51436;44.692;39.214;2022-12-10T03:23:15;7.65;78.02
64924;HTU21D;51436;44.692;39.214;2022-12-10T03:25:43;7.68;78.08
64924;HTU21D;51436;44.692;39.214;2022-12-10T03:28:11;7.70;78.10
64924;HTU21D;51436;44.692;39.214;2022-12-10T03:30:39;7.73;78.04
64924;HTU21D;51436;44.692;39.214;2022-12-10T03:33:07;7.76;78.04
64924;HTU21D;51436;44.692;39.214;2022-12-10T03:35:34;7.76;78.03
64924;HTU21D;51436;44.692;39.214;2022-12-10T03:38:01;7.79;78.02
64924;HTU21D;51436;44.692;39.214;2022-12-10T03:40:28;7.82;78.01
64924;HTU21D;51436;44.692;39.214;2022-12-10T03:43:12;7.82;77.65
64924;HTU21D;51436;44.692;39.214;2022-12-10T03:45:39;7.81;77.99
64924;HTU21D;51436;44.692;39.214;2022-12-10T03:48:06;7.77;78.08
64924;HTU21D;51436;44.692;39.214;2022-12-10T03:50:32;7.72;78.31
64924;HTU21D;51436;44.692;39.214;2022-12-10T03:52:59;7.70;78.32
64924;HTU21D;51436;44.692;39.214;2022-12-10T03:55:25;7.65;78.46
64924;HTU21D;51436;44.692;39.214;2022-12-10T03:57:54;7.68;78.55
64924;HTU21D;51436;44.692;39.214;2022-12-10T04:00:21;7.69;78.50
64924;HTU21D;51436;44.692;39.214;2022-12-10T04:03:10;7.69;78.14
64924;HTU21D;51436;44.692;39.214;2022-12-10T04:05:45;7.72;78.45
64924;HTU21D;51436;44.692;39.214;2022-12-10T04:08:12;7.76;78.43
64924;HTU21D;51436;44.692;39.214;2022-12-10T04:10:38;7.79;78.34
64924;HTU21D;51436;44.692;39.214;2022-12-10T04:13:05;7.81;78.32
64924;HTU21D;51436;44.692;39.214;2022-12-10T04:16:00;7.85;78.24
64924;HTU21D;51436;44.692;39.214;2022-12-10T04:18:46;7.85;78.23
64924;HTU21D;51436;44.692;39.214;2022-12-10T04:21:12;7.86;78.21
64924;HTU21D;51436;44.692;39.214;2022-12-10T04:23:57;7.85;78.26
64924;HTU21D;51436;44.692;39.214;2022-12-10T04:26:42;7.84;78.28
64924;HTU21D;51436;44.692;39.214;2022-12-10T04:29:28;7.84;78.03
64924;HTU21D;51436;44.692;39.214;2022-12-10T04:31:55;7.85;78.22
64924;HTU21D;51436;44.692;39.214;2022-12-10T04:34:22;7.85;78.24
64924;HTU21D;51436;44.692;39.214;2022-12-10T04:36:49;7.85;78.24
64924;HTU21D;51436;44.692;39.214;2022-12-10T04:39:16;7.84;78.25
64924;HTU21D;51436;44.692;39.214;2022-12-10T04:41:44;7.83;78.21
64924;HTU21D;51436;44.692;39.214;2022-12-10T04:44:11;7.83;78.27
64924;HTU21D;51436;44.692;39.214;2022-12-10T04:46:37;7.83;78.28
64924;HTU21D;51436;44.692;39.214;2022-12-10T04:49:05;7.81;78.30
64924;HTU21D;51436;44.692;39.214;2022-12-10T04:51:32;7.79;78.30
64924;HTU21D;51436;44.692;39.214;2022-12-10T04:53:58;7.78;78.29
64924;HTU21D;51436;44.692;39.214;2022-12-10T04:56:25;7.78;78.33
64924;HTU21D;51436;44.692;39.214;2022-12-10T04:58:51;7.75;78.33
64924;HTU21D;51436;44.692;39.214;2022-12-10T05:01:17;7.71;78.34
64924;HTU21D;51436;44.692;39.214;2022-12-10T05:03:47;7.72;78.31
64924;HTU21D;51436;44.692;39.214;2022-12-10T05:06:14;7.69;78.24
64924;HTU21D;51436;44.692;39.214;2022-12-10T05:08:41;7.63;78.33
64924;HTU21D;51436;44.692;39.214;2022-12-10T05:11:14;7.58;78.36
64924;HTU21D;51436;44.692;39.214;2022-12-10T05:13:41;7.56;78.41
64924;HTU21D;51436;44.692;39.214;2022-12-10T05:16:10;7.52;78.37
64924;HTU21D;51436;44.692;39.214;2022-12-10T05:18:37;7.47;78.38
64924;HTU21D;51436;44.692;39.214;2022-12-10T05:21:06;7.43;78.42
64924;HTU21D;51436;44.692;39.214;2022-12-10T05:23:35;7.40;78.37
64924;HTU21D;51436;44.692;39.214;2022-12-10T05:28:38;7.32;78.43
64924;HTU21D;51436;44.692;39.214;2022-12-10T05:31:05;7.32;78.41
64924;HTU21D;51436;44.692;39.214;2022-12-10T05:33:36;7.29;78.43
64924;HTU21D;51436;44.692;39.214;2022-12-10T05:36:04;7.28;78.42
64924;HTU21D;51436;44.692;39.214;2022-12-10T05:38:32;7.29;78.40
64924;HTU21D;51436;44.692;39.214;2022-12-10T05:41:08;7.32;78.26
64924;HTU21D;51436;44.692;39.214;2022-12-10T05:43:36;7.34;78.23
64924;HTU21D;51436;44.692;39.214;2022-12-10T05:46:04;7.39;78.12
64924;HTU21D;51436;44.692;39.214;2022-12-10T05:48:32;7.42;78.05
64924;HTU21D;51436;44.692;39.214;2022-12-10T05:51:03;7.44;77.92
64924;HTU21D;51436;44.692;39.214;2022-12-10T05:53:30;7.48;77.88
64924;HTU21D;51436;44.692;39.214;2022-12-10T05:56:03;7.49;77.84
64924;HTU21D;51436;44.692;39.214;2022-12-10T05:58:31;7.49;77.92
64924;HTU21D;51436;44.692;39.214;2022-12-10T06:00:58;7.52;77.95
64924;HTU21D;51436;44.692;39.214;2022-12-10T06:03:26;7.55;77.90
64924;HTU21D;51436;44.692;39.214;2022-12-10T06:05:53;7.59;77.89
64924;HTU21D;51436;44.692;39.214;2022-12-10T06:08:20;7.61;77.83
64924;HTU21D;51436;44.692;39.214;2022-12-10T06:10:46;7.64;77.83
64924;HTU21D;51436;44.692;39.214;2022-12-10T06:13:12;7.68;77.76
64924;HTU21D;51436;44.692;39.214;2022-12-10T06:15:40;7.72;77.72
64924;HTU21D;51436;44.692;39.214;2022-12-10T06:18:07;7.75;77.67
64924;HTU21D;51436;44.692;39.214;2022-12-10T06:20:34;7.76;77.64
64924;HTU21D;51436;44.692;39.214;2022-12-10T06:23:03;7.79;77.59
64924;HTU21D;51436;44.692;39.214;2022-12-10T06:25:29;7.83;77.54
64924;HTU21D;51436;44.692;39.214;2022-12-10T06:27:55;7.86;77.47
64924;HTU21D;51436;44.692;39.214;2022-12-10T06:30:22;7.86;77.43
64924;HTU21D;51436;44.692;39.214;2022-12-10T06:32:48;7.87;77.44
64924;HTU21D;51436;44.692;39.214;2022-12-10T06:35:14;7.88;77.47
64924;HTU21D;51436;44.692;39.214;2022-12-10T06:37:41;7.93;77.42
64924;HTU21D;51436;44.692;39.214;2022-12-10T06:40:08;7.97;77.34
64924;HTU21D;51436;44.692;39.214;2022-12-10T06:42:34;8.04;77.33
64924;HTU21D;51436;44.692;39.214;2022-12-10T06:45:01;8.14;77.17
64924;HTU21D;51436;44.692;39.214;2022-12-10T06:47:27;8.22;77.00
64924;HTU21D;51436;44.692;39.214;2022-12-10T06:49:53;8.33;76.95
64924;HTU21D;51436;44.692;39.214;2022-12-10T06:52:20;8.44;76.87
64924;HTU21D;51436;44.692;39.214;2022-12-10T06:54:46;8.53;76.87
64924;HTU21D;51436;44.692;39.214;2022-12-10T06:57:12;8.62;76.77
64924;HTU21D;51436;44.692;39.214;2022-12-10T06:59:40;8.73;76.72
64924;HTU21D;51436;44.692;39.214;2022-12-10T07:02:08;8.77;76.63
64924;HTU21D;51436;44.692;39.214;2022-12-10T07:04:35;8.81;76.70
64924;HTU21D;51436;44.692;39.214;2022-12-10T07:07:01;8.86;76.75
64924;HTU21D;51436;44.692;39.214;2022-12-10T07:09:28;8.91;76.89
64924;HTU21D;51436;44.692;39.214;2022-12-10T07:11:54;8.96;76.92
64924;HTU21D;51436;44.692;39.214;2022-12-10T07:14:24;9.06;76.73
64924;HTU21D;51436;44.692;39.214;2022-12-10T07:16:51;9.16;76.79
64924;HTU21D;51436;44.692;39.214;2022-12-10T07:19:26;9.26;76.59
64924;HTU21D;51436;44.692;39.214;2022-12-10T07:22:11;9.36;76.59
64924;HTU21D;51436;44.692;39.214;2022-12-10T07:27:17;9.56;76.56
64924;HTU21D;51436;44.692;39.214;2022-12-10T07:29:44;9.66;76.44
64924;HTU21D;51436;44.692;39.214;2022-12-10T07:32:10;9.79;76.34
64924;HTU21D;51436;44.692;39.214;2022-12-10T07:34:37;9.92;76.17
64924;HTU21D;51436;44.692;39.214;2022-12-10T07:37:03;10.06;76.02
64924;HTU21D;51436;44.692;39.214;2022-12-10T07:39:32;10.19;75.81
64924;HTU21D;51436;44.692;39.214;2022-12-10T07:41:59;10.29;75.76
64924;HTU21D;51436;44.692;39.214;2022-12-10T07:47:29;10.59;75.39
64924;HTU21D;51436;44.692;39.214;2022-12-10T07:49:56;10.74;75.34
64924;HTU21D;51436;44.692;39.214;2022-12-10T07:52:34;10.93;74.81
64924;HTU21D;51436;44.692;39.214;2022-12-10T07:55:02;11.08;74.75
64924;HTU21D;51436;44.692;39.214;2022-12-10T07:57:29;11.25;74.34
64924;HTU21D;51436;44.692;39.214;2022-12-10T07:59:56;11.42;73.90
64924;HTU21D;51436;44.692;39.214;2022-12-10T08:02:36;11.61;73.38
64924;HTU21D;51436;44.692;39.214;2022-12-10T08:05:11;11.79;73.14
64924;HTU21D;51436;44.692;39.214;2022-12-10T08:07:46;11.97;72.47
64924;HTU21D;51436;44.692;39.214;2022-12-10T08:10:12;12.11;71.89
64924;HTU21D;51436;44.692;39.214;2022-12-10T08:12:39;12.21;71.70
64924;HTU21D;51436;44.692;39.214;2022-12-10T08:15:06;12.31;71.37
64924;HTU21D;51436;44.692;39.214;2022-12-10T08:17:35;12.40;71.19
64924;HTU21D;51436;44.692;39.214;2022-12-10T08:20:01;12.47;70.58
64924;HTU21D;51436;44.692;39.214;2022-12-10T08:22:28;12.57;70.28
64924;HTU21D;51436;44.692;39.214;2022-12-10T08:24:54;12.69;69.98
64924;HTU21D;51436;44.692;39.214;2022-12-10T08:27:21;12.79;69.39
64924;HTU21D;51436;44.692;39.214;2022-12-10T08:29:47;12.90;69.10
64924;HTU21D;51436;44.692;39.214;2022-12-10T08:32:13;12.97;68.65
64924;HTU21D;51436;44.692;39.214;2022-12-10T08:34:42;13.05;68.49
64924;HTU21D;51436;44.692;39.214;2022-12-10T08:37:08;13.09;68.13
64924;HTU21D;51436;44.692;39.214;2022-12-10T08:39:34;13.16;68.01
64924;HTU21D;51436;44.692;39.214;2022-12-10T08:42:01;13.22;67.81
64924;HTU21D;51436;44.692;39.214;2022-12-10T08:44:27;13.32;67.46
64924;HTU21D;51436;44.692;39.214;2022-12-10T08:46:53;13.40;67.21
64924;HTU21D;51436;44.692;39.214;2022-12-10T08:49:20;13.45;67.02
64924;HTU21D;51436;44.692;39.214;2022-12-10T08:51:46;13.47;66.89
64924;HTU21D;51436;44.692;39.214;2022-12-10T08:54:12;13.53;66.82
64924;HTU21D;51436;44.692;39.214;2022-12-10T08:56:39;13.59;66.70
64924;HTU21D;51436;44.692;39.214;2022-12-10T08:59:06;13.64;66.58
64924;HTU21D;51436;44.692;39.214;2022-12-10T09:01:33;13.65;66.49
64924;HTU21D;51436;44.692;39.214;2022-12-10T09:03:59;13.71;66.51
64924;HTU21D;51436;44.692;39.214;2022-12-10T09:06:27;13.82;66.32
64924;HTU21D;51436;44.692;39.214;2022-12-10T09:08:54;13.97;65.86
64924;HTU21D;51436;44.692;39.214;2022-12-10T09:22:21;14.28;65.21
64924;HTU21D;51436;44.692;39.214;2022-12-10T09:24:47;14.30;64.98
64924;HTU21D;51436;44.692;39.214;2022-12-10T09:27:14;14.29;64.76
64924;HTU21D;51436;44.692;39.214;2022-12-10T09:29:40;14.29;64.63
64924;HTU21D;51436;44.692;39.214;2022-12-10T09:32:06;14.29;64.39
64924;HTU21D;51436;44.692;39.214;2022-12-10T09:34:33;14.24;64.27
64924;HTU21D;51436;44.692;39.214;2022-12-10T09:36:59;14.18;64.33
64924;HTU21D;51436;44.692;39.214;2022-12-10T09:39:25;14.09;64.32
64924;HTU21D;51436;44.692;39.214;2022-12-10T09:47:02;13.94;64.55
64924;HTU21D;51436;44.692;39.214;2022-12-10T09:49:51;13.91;64.74
64924;HTU21D;51436;44.692;39.214;2022-12-10T09:52:22;13.93;64.40
64924;HTU21D;51436;44.692;39.214;2022-12-10T09:57:37;14.06;64.17
64924;HTU21D;51436;44.692;39.214;2022-12-10T10:02:49;14.12;64.46
64924;HTU21D;51436;44.692;39.214;2022-12-10T10:05:22;14.17;63.89
64924;HTU21D;51436;44.692;39.214;2022-12-10T10:08:36;14.22;63.93
64924;HTU21D;51436;44.692;39.214;2022-12-10T10:11:05;14.34;63.31
64924;HTU21D;51436;44.692;39.214;2022-12-10T10:13:53;14.42;63.48
64924;HTU21D;51436;44.692;39.214;2022-12-10T10:16:42;14.51;63.05
64924;HTU21D;51436;44.692;39.214;2022-12-10T10:19:16;14.56;62.53
64924;HTU21D;51436;44.692;39.214;2022-12-10T10:21:46;14.63;62.46
64924;HTU21D;51436;44.692;39.214;2022-12-10T12:21:55;15.18;60.28
64924;HTU21D;51436;44.692;39.214;2022-12-10T12:24:34;15.19;60.25
64924;HTU21D;51436;44.692;39.214;2022-12-10T12:30:04;15.14;60.07
64924;HTU21D;51436;44.692;39.214;2022-12-10T12:35:40;15.10;59.87
64924;HTU21D;51436;44.692;39.214;2022-12-10T12:41:03;15.04;59.50
64924;HTU21D;51436;44.692;39.214;2022-12-10T12:46:09;14.97;59.08
64924;HTU21D;51436;44.692;39.214;2022-12-10T12:53:41;14.83;58.79
64924;HTU21D;51436;44.692;39.214;2022-12-10T12:58:59;14.72;59.30
64924;HTU21D;51436;44.692;39.214;2022-12-10T13:01:39;14.65;59.06
64924;HTU21D;51436;44.692;39.214;2022-12-10T13:04:07;14.56;58.96
64924;HTU21D;51436;44.692;39.214;2022-12-10T13:06:36;14.51;58.97
64924;HTU21D;51436;44.692;39.214;2022-12-10T13:11:40;14.42;58.90
64924;HTU21D;51436;44.692;39.214;2022-12-10T13:22:05;14.15;59.32
64924;HTU21D;51436;44.692;39.214;2022-12-10T13:32:22;13.88;59.61
64924;HTU21D;51436;44.692;39.214;2022-12-10T13:40:42;13.56;60.34
64924;HTU21D;51436;44.692;39.214;2022-12-10T13:43:36;13.46;60.54
64924;HTU21D;51436;44.692;39.214;2022-12-10T13:46:34;13.32;60.70
64924;HTU21D;51436;44.692;39.214;2022-12-10T13:49:03;13.21;60.88
64924;HTU21D;51436;44.692;39.214;2022-12-10T13:51:43;13.11;61.21
64924;HTU21D;51436;44.692;39.214;2022-12-10T13:54:29;13.01;61.45
64924;HTU21D;51436;44.692;39.214;2022-12-10T13:57:23;12.91;61.72
64924;HTU21D;51436;44.692;39.214;2022-12-10T14:00:08;12.82;61.83
64924;HTU21D;51436;44.692;39.214;2022-12-10T14:02:47;12.77;61.82
64924;HTU21D;51436;44.692;39.214;2022-12-10T14:05:33;12.70;61.96
64924;HTU21D;51436;44.692;39.214;2022-12-10T14:08:05;12.60;62.18
64924;HTU21D;51436;44.692;39.214;2022-12-10T14:10:34;12.51;62.37
64924;HTU21D;51436;44.692;39.214;2022-12-10T14:13:04;12.42;62.61
64924;HTU21D;51436;44.692;39.214;2022-12-10T14:15:34;12.32;62.82
64924;HTU21D;51436;44.692;39.214;2022-12-10T14:18:10;12.23;63.02
64924;HTU21D;51436;44.692;39.214;2022-12-10T14:20:44;12.15;63.16
64924;HTU21D;51436;44.692;39.214;2022-12-10T14:23:47;12.04;63.42
64924;HTU21D;51436;44.692;39.214;2022-12-10T14:28:43;11.82;63.85
64924;HTU21D;51436;44.692;39.214;2022-12-10T14:31:33;11.72;64.02
64924;HTU21D;51436;44.692;39.214;2022-12-10T14:34:04;11.61;64.24
64924;HTU21D;51436;44.692;39.214;2022-12-10T14:36:36;11.58;64.33
64924;HTU21D;51436;44.692;39.214;2022-12-10T14:39:04;11.52;64.45
64924;HTU21D;51436;44.692;39.214;2022-12-10T14:41:37;11.48;64.59
64924;HTU21D;51436;44.692;39.214;2022-12-10T14:44:03;11.47;64.60
64924;HTU21D;51436;44.692;39.214;2022-12-10T14:46:31;11.46;64.65
64924;HTU21D;51436;44.692;39.214;2022-12-10T14:48:58;11.39;64.74
64924;HTU21D;51436;44.692;39.214;2022-12-10T14:51:30;11.36;64.83
64924;HTU21D;51436;44.692;39.214;2022-12-10T14:53:57;11.32;64.88
64924;HTU21D;51436;44.692;39.214;2022-12-10T14:56:33;11.28;64.95
64924;HTU21D;51436;44.692;39.214;2022-12-10T14:59:25;11.18;65.14
64924;HTU21D;51436;44.692;39.214;2022-12-10T15:01:57;11.14;65.26
64924;HTU21D;51436;44.692;39.214;2022-12-10T15:04:31;11.11;65.26
64924;HTU21D;51436;44.692;39.214;2022-12-10T15:07:05;11.20;65.04
64924;HTU21D;51436;44.692;39.214;2022-12-10T15:09:34;11.24;64.92
64924;HTU21D;51436;44.692;39.214;2022-12-10T15:12:00;11.23;64.98
64924;HTU21D;51436;44.692;39.214;2022-12-10T15:14:28;11.18;65.09
64924;HTU21D;51436;44.692;39.214;2022-12-10T15:16:57;11.14;65.19
64924;HTU21D;51436;44.692;39.214;2022-12-10T15:22:11;10.94;65.56
64924;HTU21D;51436;44.692;39.214;2022-12-10T15:24:43;10.86;65.72
64924;HTU21D;51436;44.692;39.214;2022-12-10T15:27:19;10.77;65.92
64924;HTU21D;51436;44.692;39.214;2022-12-10T15:29:46;10.70;66.00
64924;HTU21D;51436;44.692;39.214;2022-12-10T15:32:27;10.62;66.14
64924;HTU21D;51436;44.692;39.214;2022-12-10T15:35:14;10.51;66.36
64924;HTU21D;51436;44.692;39.214;2022-12-10T15:37:41;10.43;66.53
64924;HTU21D;51436;44.692;39.214;2022-12-10T15:40:27;10.40;66.60
64924;HTU21D;51436;44.692;39.214;2022-12-10T15:43:25;10.41;66.54
64924;HTU21D;51436;44.692;39.214;2022-12-10T15:45:51;10.38;66.68
64924;HTU21D;51436;44.692;39.214;2022-12-10T15:48:19;10.35;66.66
64924;HTU21D;51436;44.692;39.214;2022-12-10T15:50:46;10.31;66.75
64924;HTU21D;51436;44.692;39.214;2022-12-10T15:53:23;10.27;66.80
64924;HTU21D;51436;44.692;39.214;2022-12-10T15:55:50;10.23;66.81
64924;HTU21D;51436;44.692;39.214;2022-12-10T15:58:16;10.19;66.94
64924;HTU21D;51436;44.692;39.214;2022-12-10T16:00:43;10.15;66.98
64924;HTU21D;51436;44.692;39.214;2022-12-10T16:03:15;10.13;66.95
64924;HTU21D;51436;44.692;39.214;2022-12-10T16:05:42;10.07;67.05
64924;HTU21D;51436;44.692;39.214;2022-12-10T16:08:28;9.95;67.22
64924;HTU21D;51436;44.692;39.214;2022-12-10T16:10:59;9.84;67.45
64924;HTU21D;51436;44.692;39.214;2022-12-10T16:13:35;9.77;67.59
64924;HTU21D;51436;44.692;39.214;2022-12-10T16:16:09;9.74;67.68
64924;HTU21D;51436;44.692;39.214;2022-12-10T16:18:36;9.72;67.75
64924;HTU21D;51436;44.692;39.214;2022-12-10T16:21:06;9.74;67.66
64924;HTU21D;51436;44.692;39.214;2022-12-10T16:23:34;9.72;67.68
64924;HTU21D;51436;44.692;39.214;2022-12-10T16:26:01;9.71;67.68
64924;HTU21D;51436;44.692;39.214;2022-12-10T16:28:29;9.64;67.69
64924;HTU21D;51436;44.692;39.214;2022-12-10T16:30:57;9.54;67.84
64924;HTU21D;51436;44.692;39.214;2022-12-10T16:33:26;9.48;68.04
64924;HTU21D;51436;44.692;39.214;2022-12-10T16:35:54;9.42;68.11
64924;HTU21D;51436;44.692;39.214;2022-12-10T16:38:20;9.39;68.06
64924;HTU21D;51436;44.692;39.214;2022-12-10T16:40:48;9.32;68.14
64924;HTU21D;51436;44.692;39.214;2022-12-10T16:43:18;9.26;68.23
64924;HTU21D;51436;44.692;39.214;2022-12-10T16:45:46;9.25;68.25
64924;HTU21D;51436;44.692;39.214;2022-12-10T16:48:12;9.23;68.24
64924;HTU21D;51436;44.692;39.214;2022-12-10T16:50:41;9.22;68.24
64924;HTU21D;51436;44.692;39.214;2022-12-10T16:53:23;9.20;68.21
64924;HTU21D;51436;44.692;39.214;2022-12-10T16:55:52;9.19;68.26
64924;HTU21D;51436;44.692;39.214;2022-12-10T16:58:19;9.15;68.27
64924;HTU21D;51436;44.692;39.214;2022-12-10T17:00:48;9.10;68.45
64924;HTU21D;51436;44.692;39.214;2022-12-10T17:03:18;9.08;68.38
64924;HTU21D;51436;44.692;39.214;2022-12-10T17:05:59;9.05;68.42
64924;HTU21D;51436;44.692;39.214;2022-12-10T17:08:27;9.04;68.43
64924;HTU21D;51436;44.692;39.214;2022-12-10T17:10:54;8.97;68.54
64924;HTU21D;51436;44.692;39.214;2022-12-10T17:13:41;8.91;68.68
64924;HTU21D;51436;44.692;39.214;2022-12-10T17:16:14;8.90;68.67
64924;HTU21D;51436;44.692;39.214;2022-12-10T17:18:42;8.89;68.75
64924;HTU21D;51436;44.692;39.214;2022-12-10T17:21:08;8.88;68.74
64924;HTU21D;51436;44.692;39.214;2022-12-10T17:23:34;8.89;68.71
64924;HTU21D;51436;44.692;39.214;2022-12-10T17:26:01;8.88;68.74
64924;HTU21D;51436;44.692;39.214;2022-12-10T17:28:29;8.88;68.70
64924;HTU21D;51436;44.692;39.214;2022-12-10T17:30:56;8.87;68.74
64924;HTU21D;51436;44.692;39.214;2022-12-10T17:33:23;8.85;68.74
64924;HTU21D;51436;44.692;39.214;2022-12-10T17:35:51;8.82;68.78
64924;HTU21D;51436;44.692;39.214;2022-12-10T17:38:20;8.85;68.75
64924;HTU21D;51436;44.692;39.214;2022-12-10T17:40:47;8.89;68.70
64924;HTU21D;51436;44.692;39.214;2022-12-10T17:43:14;8.92;68.68
64924;HTU21D;51436;44.692;39.214;2022-12-10T17:45:41;8.92;68.65
64924;HTU21D;51436;44.692;39.214;2022-12-10T17:48:16;8.89;68.71
64924;HTU21D;51436;44.692;39.214;2022-12-10T17:50:44;8.90;68.83
64924;HTU21D;51436;44.692;39.214;2022-12-10T17:53:12;8.91;68.84
64924;HTU21D;51436;44.692;39.214;2022-12-10T17:55:44;8.94;68.75
64924;HTU21D;51436;44.692;39.214;2022-12-10T17:58:11;9.00;68.63
64924;HTU21D;51436;44.692;39.214;2022-12-10T18:00:38;9.05;68.52
64924;HTU21D;51436;44.692;39.214;2022-12-10T18:03:04;9.06;68.52
64924;HTU21D;51436;44.692;39.214;2022-12-10T18:05:31;9.08;68.52
64924;HTU21D;51436;44.692;39.214;2022-12-10T18:07:58;9.03;68.68
64924;HTU21D;51436;44.692;39.214;2022-12-10T18:10:29;8.98;68.73
64924;HTU21D;51436;44.692;39.214;2022-12-10T18:12:57;8.96;68.81
64924;HTU21D;51436;44.692;39.214;2022-12-10T18:15:25;8.93;68.92
64924;HTU21D;51436;44.692;39.214;2022-12-10T18:17:52;8.92;68.99
64924;HTU21D;51436;44.692;39.214;2022-12-10T18:20:27;8.86;69.05
64924;HTU21D;51436;44.692;39.214;2022-12-10T18:31:13;8.75;69.19
64924;HTU21D;51436;44.692;39.214;2022-12-10T18:33:42;8.71;69.36
64924;HTU21D;51436;44.692;39.214;2022-12-10T18:36:17;8.66;69.42
64924;HTU21D;51436;44.692;39.214;2022-12-10T18:38:45;8.68;69.39
64924;HTU21D;51436;44.692;39.214;2022-12-10T18:41:13;8.68;69.34
64924;HTU21D;51436;44.692;39.214;2022-12-10T18:43:40;8.72;69.27
64924;HTU21D;51436;44.692;39.214;2022-12-10T18:46:13;8.70;69.29
64924;HTU21D;51436;44.692;39.214;2022-12-10T18:48:40;8.72;69.25
64924;HTU21D;51436;44.692;39.214;2022-12-10T18:51:07;8.73;69.26
64924;HTU21D;51436;44.692;39.214;2022-12-10T18:53:33;8.74;69.19
64924;HTU21D;51436;44.692;39.214;2022-12-10T18:55:59;8.73;69.21
64924;HTU21D;51436;44.692;39.214;2022-12-10T18:58:26;8.73;69.18
64924;HTU21D;51436;44.692;39.214;2022-12-10T19:00:52;8.72;69.20
64924;HTU21D;51436;44.692;39.214;2022-12-10T19:03:19;8.66;69.31
64924;HTU21D;51436;44.692;39.214;2022-12-10T19:05:45;8.64;69.42
64924;HTU21D;51436;44.692;39.214;2022-12-10T19:08:12;8.62;69.43
64924;HTU21D;51436;44.692;39.214;2022-12-10T19:10:39;8.61;69.41
64924;HTU21D;51436;44.692;39.214;2022-12-10T19:13:06;8.60;69.50
64924;HTU21D;51436;44.692;39.214;2022-12-10T19:15:32;8.59;69.53
64924;HTU21D;51436;44.692;39.214;2022-12-10T19:18:00;8.57;69.52
64924;HTU21D;51436;44.692;39.214;2022-12-10T19:20:28;8.52;69.53
64924;HTU21D;51436;44.692;39.214;2022-12-10T19:22:55;8.45;69.68